createdAt,value
2022-10-11T00:00:30.384Z,99647.16
2022-10-11T00:01:31.924Z,99650.09
2022-10-11T00:02:33.356Z,99639.50
2022-10-11T00:03:34.678Z,99642.97
2022-10-11T00:04:36.026Z,99637.28
2022-10-11T00:05:37.514Z,99631.84
2022-10-11T00:06:38.858Z,99640.34
2022-10-11T00:07:40.193Z,99640.91
2022-10-11T00:08:41.520Z,99638.84
2022-10-11T00:09:43.051Z,99635.91
2022-10-11T00:10:44.395Z,99640.91
2022-10-11T00:11:45.733Z,99637.44
2022-10-11T00:12:47.097Z,99637.28
2022-10-11T00:13:48.419Z,99633.84
2022-10-11T00:14:49.755Z,99636.31
2022-10-11T00:15:51.106Z,99643.97
2022-10-11T00:16:52.579Z,99643.72
2022-10-11T00:17:53.919Z,99650.50
2022-10-11T00:18:55.255Z,99639.53
2022-10-11T00:19:56.609Z,99642.72
2022-10-11T00:21:02.166Z,99641.47
2022-10-11T00:22:03.524Z,99639.25
2022-10-11T00:23:04.854Z,99645.09
2022-10-11T00:24:06.516Z,99647.75
2022-10-11T00:25:08.660Z,99645.09
2022-10-11T00:26:10.632Z,99641.47
2022-10-11T00:27:12.003Z,99647.44
2022-10-11T00:28:13.385Z,99644.81
2022-10-11T00:29:14.788Z,99642.97
2022-10-11T00:30:16.189Z,99634.78
2022-10-11T00:31:17.597Z,99641.34
2022-10-11T00:32:19.125Z,99645.50
2022-10-11T00:33:20.692Z,99636.19
2022-10-11T00:34:22.034Z,99649.97
2022-10-11T00:35:23.374Z,99636.47
2022-10-11T00:36:24.845Z,99647.84
2022-10-11T00:37:26.197Z,99647.28
2022-10-11T00:38:27.554Z,99643.13
2022-10-11T00:39:29.183Z,99646.31
2022-10-11T00:40:30.657Z,99637.13
2022-10-11T00:41:32.006Z,99641.19
2022-10-11T00:42:33.356Z,99641.19
2022-10-11T00:43:35.213Z,99642.00
2022-10-11T00:44:36.554Z,99644.06
2022-10-11T00:45:37.850Z,99637.00
2022-10-11T00:46:40.278Z,99638.50
2022-10-11T00:47:41.629Z,99639.50
2022-10-11T00:48:48.625Z,99638.41
2022-10-11T00:49:55.107Z,99637.13
2022-10-11T00:50:58.243Z,99639.50
2022-10-11T00:52:02.970Z,99639.66
2022-10-11T00:53:08.950Z,99643.78
2022-10-11T00:54:12.518Z,99635.31
2022-10-11T00:55:16.724Z,99640.59
2022-10-11T00:56:23.873Z,99633.91
2022-10-11T00:57:27.881Z,99640.28
2022-10-11T00:58:29.446Z,99637.66
2022-10-11T00:59:34.479Z,99643.50
2022-10-11T01:00:35.935Z,99634.78
2022-10-11T01:01:37.405Z,99632.13
2022-10-11T01:02:39.669Z,99641.59
2022-10-11T01:03:41.296Z,99631.16
2022-10-11T01:04:42.689Z,99637.28
2022-10-11T01:05:44.230Z,99635.75
2022-10-11T01:06:45.680Z,99636.03
2022-10-11T01:07:47.623Z,99631.56
2022-10-11T01:08:50.193Z,99632.94
2022-10-11T01:09:51.532Z,99638.91
2022-10-11T01:10:53.084Z,99636.84
2022-10-11T01:11:56.256Z,99640.19
2022-10-11T01:13:12.803Z,99635.19
2022-10-11T01:14:14.104Z,99637.81
2022-10-11T01:15:25.540Z,99637.81
2022-10-11T01:16:31.817Z,99635.31
2022-10-11T01:17:43.967Z,99628.66
2022-10-11T01:18:49.570Z,99633.41
2022-10-11T01:19:59.822Z,99636.84
2022-10-11T01:21:13.262Z,99629.50
2022-10-11T01:22:33.341Z,99630.91
2022-10-11T01:23:58.811Z,99637.56
2022-10-11T01:25:06.034Z,99634.66
2022-10-11T01:26:22.423Z,99642.00
2022-10-11T01:27:26.767Z,99639.53
2022-10-11T01:28:41.250Z,99629.66
2022-10-11T01:29:58.060Z,99630.63
2022-10-11T01:31:03.447Z,99631.31
2022-10-11T01:32:27.736Z,99628.53
2022-10-11T01:33:36.995Z,99629.09
2022-10-11T01:34:45.653Z,99628.94
2022-10-11T01:35:53.388Z,99625.03
2022-10-11T01:37:03.797Z,99628.41
2022-10-11T01:38:05.104Z,99631.03
2022-10-11T01:39:11.816Z,99624.09
2022-10-11T01:40:17.566Z,99628.13
2022-10-11T01:41:21.975Z,99629.91
2022-10-11T01:42:23.866Z,99630.19
2022-10-11T01:43:26.339Z,99630.16
2022-10-11T01:44:28.666Z,99630.16
2022-10-11T01:45:30.467Z,99629.72
2022-10-11T01:46:32.900Z,99626.97
2022-10-11T01:47:34.240Z,99622.22
2022-10-11T01:48:46.654Z,99631.38
2022-10-11T01:49:58.143Z,99630.41
2022-10-11T01:51:01.847Z,99624.03
2022-10-11T01:52:05.172Z,99630.69
2022-10-11T01:53:12.986Z,99628.44
2022-10-11T01:54:17.304Z,99626.78
2022-10-11T01:55:37.869Z,99632.06
2022-10-11T01:56:58.340Z,99630.94
2022-10-11T01:57:59.654Z,99637.75
2022-10-11T01:59:16.347Z,99633.56
2022-10-11T02:00:29.047Z,99631.78
2022-10-11T02:01:42.557Z,99631.91
2022-10-11T02:02:46.951Z,99634.41
2022-10-11T02:03:51.767Z,99628.56
2022-10-11T02:05:01.426Z,99628.84
2022-10-11T02:06:08.183Z,99635.66
2022-10-11T02:07:48.404Z,99633.94
2022-10-11T02:08:53.922Z,99630.34
2022-10-11T02:10:07.040Z,99630.22
2022-10-11T02:11:14.044Z,99638.97
2022-10-11T02:12:20.678Z,99638.97
2022-10-11T02:13:21.971Z,99638.41
2022-10-11T02:14:26.500Z,99638.81
2022-10-11T02:15:30.056Z,99641.84
2022-10-11T02:16:34.453Z,99637.56
2022-10-11T02:17:39.655Z,99641.47
2022-10-11T02:18:43.352Z,99643.13
2022-10-11T02:19:47.601Z,99639.13
2022-10-11T02:20:50.261Z,99634.53
2022-10-11T02:21:54.371Z,99636.34
2022-10-11T02:23:02.414Z,99633.56
2022-10-11T02:24:08.225Z,99638.16
2022-10-11T02:25:11.811Z,99640.94
2022-10-11T02:26:14.418Z,99637.44
2022-10-11T02:27:17.856Z,99642.22
2022-10-11T02:28:24.282Z,99641.25
2022-10-11T02:29:27.745Z,99639.03
2022-10-11T02:30:30.521Z,99639.59
2022-10-11T02:31:33.390Z,99641.69
2022-10-11T02:32:38.151Z,99636.28
2022-10-11T02:33:44.228Z,99636.00
2022-10-11T02:34:50.956Z,99643.63
2022-10-11T02:35:55.920Z,99642.94
2022-10-11T02:37:20.533Z,99640.56
2022-10-11T02:38:24.953Z,99643.91
2022-10-11T02:39:30.097Z,99655.03
2022-10-11T02:40:40.031Z,99647.63
2022-10-11T02:41:41.641Z,99654.31
2022-10-11T02:42:45.469Z,99649.28
2022-10-11T02:43:50.563Z,99647.38
2022-10-11T02:44:58.412Z,99645.84
2022-10-11T02:46:00.999Z,99654.47
2022-10-11T02:47:03.746Z,99645.44
2022-10-11T02:48:06.755Z,99649.75
2022-10-11T02:49:08.340Z,99654.47
2022-10-11T02:50:12.834Z,99650.31
2022-10-11T02:51:14.745Z,99643.91
2022-10-11T02:52:16.068Z,99650.03
2022-10-11T02:53:17.411Z,99661.56
2022-10-11T02:54:18.747Z,99650.84
2022-10-11T02:55:20.236Z,99648.19
2022-10-11T02:56:21.588Z,99659.44
2022-10-11T02:57:22.931Z,99655.72
2022-10-11T02:58:24.579Z,99660.44
2022-10-11T02:59:25.913Z,99661.00
2022-10-11T03:00:27.315Z,99651.88
2022-10-11T03:01:28.684Z,99660.47
2022-10-11T03:02:30.073Z,99658.25
2022-10-11T03:03:31.415Z,99656.31
2022-10-11T03:04:32.807Z,99662.16
2022-10-11T03:05:34.169Z,99668.00
2022-10-11T03:06:35.486Z,99673.69
2022-10-11T03:07:36.860Z,99667.31
2022-10-11T03:08:38.229Z,99675.06
2022-10-11T03:09:39.557Z,99666.91
2022-10-11T03:10:41.271Z,99668.69
2022-10-11T03:11:42.606Z,99672.03
2022-10-11T03:12:43.995Z,99666.75
2022-10-11T03:13:45.399Z,99668.56
2022-10-11T03:14:46.736Z,99673.16
2022-10-11T03:16:02.403Z,99673.97
2022-10-11T03:17:31.153Z,99672.88
2022-10-11T03:18:26.204Z,99674.53
2022-10-11T03:19:27.631Z,99671.78
2022-10-11T03:20:28.980Z,99679.41
2022-10-11T03:21:30.532Z,99674.84
2022-10-11T03:22:31.911Z,99685.41
2022-10-11T03:23:33.268Z,99683.44
2022-10-11T03:24:34.586Z,99685.97
2022-10-11T03:25:35.959Z,99686.94
2022-10-11T03:26:37.293Z,99692.06
2022-10-11T03:27:38.661Z,99686.78
2022-10-11T03:28:40.113Z,99679.69
2022-10-11T03:29:41.467Z,99686.78
2022-10-11T03:30:42.824Z,99680.53
2022-10-11T03:31:44.245Z,99692.91
2022-10-11T03:32:45.943Z,99689.56
2022-10-11T03:33:47.408Z,99690.69
2022-10-11T03:34:48.763Z,99693.31
2022-10-11T03:35:50.096Z,99693.19
2022-10-11T03:36:51.454Z,99689.81
2022-10-11T03:37:52.788Z,99693.44
2022-10-11T03:38:54.161Z,99698.03
2022-10-11T03:39:55.496Z,99689.41
2022-10-11T03:40:56.824Z,99689.28
2022-10-11T03:41:58.157Z,99692.06
2022-10-11T03:42:59.499Z,99686.22
2022-10-11T03:44:00.845Z,99694.00
2022-10-11T03:45:02.270Z,99686.78
2022-10-11T03:46:03.980Z,99683.03
2022-10-11T03:47:05.770Z,99682.19
2022-10-11T03:48:07.110Z,99685.09
2022-10-11T03:49:08.445Z,99684.81
2022-10-11T03:50:09.811Z,99681.72
2022-10-11T03:51:11.165Z,99683.50
2022-10-11T03:52:12.493Z,99685.91
2022-10-11T03:53:13.861Z,99683.66
2022-10-11T03:54:15.226Z,99689.66
2022-10-11T03:55:16.641Z,99692.00
2022-10-11T03:56:17.979Z,99691.19
2022-10-11T03:57:19.408Z,99689.63
2022-10-11T03:58:20.878Z,99677.59
2022-10-11T03:59:22.198Z,99677.41
2022-10-11T04:00:23.616Z,99677.13
2022-10-11T04:01:25.078Z,99684.72
2022-10-11T04:02:26.423Z,99680.81
2022-10-11T04:03:27.792Z,99693.19
2022-10-11T04:04:29.137Z,99701.63
2022-10-11T04:05:30.655Z,99704.44
2022-10-11T04:06:32.067Z,99703.19
2022-10-11T04:07:33.437Z,99704.34
2022-10-11T04:08:34.783Z,99700.19
2022-10-11T04:09:36.140Z,99696.19
2022-10-11T04:10:37.469Z,99704.81
2022-10-11T04:11:38.798Z,99701.06
2022-10-11T04:12:40.131Z,99701.53
2022-10-11T04:13:41.455Z,99705.25
2022-10-11T04:14:42.792Z,99700.81
2022-10-11T04:15:44.114Z,99703.31
2022-10-11T04:16:45.459Z,99706.66
2022-10-11T04:17:46.812Z,99711.66
2022-10-11T04:18:48.140Z,99714.06
2022-10-11T04:19:49.473Z,99720.72
2022-10-11T04:20:50.834Z,99712.38
2022-10-11T04:21:52.160Z,99715.41
2022-10-11T04:22:53.472Z,99713.00
2022-10-11T04:23:54.801Z,99715.78
2022-10-11T04:24:56.134Z,99718.41
2022-10-11T04:25:57.465Z,99715.78
2022-10-11T04:26:58.800Z,99722.56
2022-10-11T04:28:00.120Z,99717.06
2022-10-11T04:29:01.472Z,99720.63
2022-10-11T04:30:03.533Z,99721.88
2022-10-11T04:31:04.946Z,99722.41
2022-10-11T04:32:06.298Z,99724.22
2022-10-11T04:33:07.655Z,99721.28
2022-10-11T04:34:08.987Z,99726.44
2022-10-11T04:35:10.482Z,99731.16
2022-10-11T04:36:11.794Z,99732.00
2022-10-11T04:37:13.210Z,99735.72
2022-10-11T04:38:14.660Z,99739.22
2022-10-11T04:39:15.993Z,99733.22
2022-10-11T04:40:17.369Z,99725.94
2022-10-11T04:41:18.697Z,99737.63
2022-10-11T04:42:20.035Z,99744.28
2022-10-11T04:43:21.371Z,99741.28
2022-10-11T04:44:22.694Z,99734.75
2022-10-11T04:45:24.027Z,99738.78
2022-10-11T04:46:25.728Z,99729.38
2022-10-11T04:47:27.043Z,99740.72
2022-10-11T04:48:28.370Z,99740.88
2022-10-11T04:49:29.782Z,99738.09
2022-10-11T04:50:31.101Z,99737.97
2022-10-11T04:51:32.448Z,99742.97
2022-10-11T04:52:33.846Z,99740.47
2022-10-11T04:53:35.201Z,99739.53
2022-10-11T04:54:36.519Z,99733.13
2022-10-11T04:55:37.835Z,99743.69
2022-10-11T04:56:39.215Z,99742.72
2022-10-11T04:57:40.538Z,99740.06
2022-10-11T04:58:41.895Z,99737.31
2022-10-11T04:59:46.685Z,99738.28
2022-10-11T05:00:51.274Z,99737.81
2022-10-11T05:01:52.647Z,99740.03
2022-10-11T05:02:54.030Z,99745.44
2022-10-11T05:03:55.345Z,99743.53
2022-10-11T05:04:56.695Z,99746.59
2022-10-11T05:06:00.885Z,99745.63
2022-10-11T05:07:04.616Z,99752.28
2022-10-11T05:08:05.981Z,99748.44
2022-10-11T05:09:07.323Z,99749.84
2022-10-11T05:10:08.997Z,99753.88
2022-10-11T05:11:15.963Z,99759.03
2022-10-11T05:12:17.612Z,99756.41
2022-10-11T05:13:18.978Z,99761.56
2022-10-11T05:14:20.355Z,99757.38
2022-10-11T05:15:21.707Z,99761.94
2022-10-11T05:16:23.434Z,99765.16
2022-10-11T05:17:24.768Z,99765.97
2022-10-11T05:18:26.425Z,99765.28
2022-10-11T05:19:27.805Z,99771.53
2022-10-11T05:20:29.153Z,99770.69
2022-10-11T05:21:30.943Z,99767.94
2022-10-11T05:22:32.269Z,99773.31
2022-10-11T05:23:34.770Z,99778.47
2022-10-11T05:24:36.086Z,99778.34
2022-10-11T05:25:37.496Z,99780.84
2022-10-11T05:26:38.830Z,99792.09
2022-10-11T05:27:40.173Z,99783.94
2022-10-11T05:28:41.692Z,99783.78
2022-10-11T05:29:43.094Z,99787.13
2022-10-11T05:30:44.431Z,99788.84
2022-10-11T05:31:45.751Z,99791.31
2022-10-11T05:32:47.089Z,99791.19
2022-10-11T05:33:48.476Z,99794.34
2022-10-11T05:34:49.798Z,99796.03
2022-10-11T05:35:51.152Z,99802.28
2022-10-11T05:36:52.470Z,99801.44
2022-10-11T05:37:53.799Z,99807.56
2022-10-11T05:38:55.144Z,99800.47
2022-10-11T05:39:56.497Z,99798.66
2022-10-11T05:41:01.954Z,99806.56
2022-10-11T05:42:06.591Z,99805.59
2022-10-11T05:43:11.123Z,99803.81
2022-10-11T05:44:12.461Z,99811.34
2022-10-11T05:45:13.783Z,99808.97
2022-10-11T05:46:15.139Z,99812.13
2022-10-11T05:47:16.490Z,99808.53
2022-10-11T05:48:17.865Z,99807.31
2022-10-11T05:49:19.192Z,99810.19
2022-10-11T05:50:24.122Z,99810.03
2022-10-11T05:51:25.888Z,99817.09
2022-10-11T05:52:27.226Z,99820.16
2022-10-11T05:53:28.896Z,99821.59
2022-10-11T05:54:30.580Z,99822.41
2022-10-11T05:55:41.652Z,99819.53
2022-10-11T05:56:43.011Z,99816.91
2022-10-11T05:57:44.372Z,99823.69
2022-10-11T05:58:45.737Z,99827.69
2022-10-11T05:59:47.064Z,99821.66
2022-10-11T06:00:48.435Z,99825.66
2022-10-11T06:01:49.893Z,99828.31
2022-10-11T06:02:51.293Z,99822.91
2022-10-11T06:03:53.112Z,99829.97
2022-10-11T06:04:54.446Z,99829.00
2022-10-11T06:05:57.250Z,99832.50
2022-10-11T06:06:58.836Z,99833.78
2022-10-11T06:08:00.224Z,99840.19
2022-10-11T06:09:01.575Z,99837.88
2022-10-11T06:10:03.606Z,99839.84
2022-10-11T06:11:12.370Z,99840.31
2022-10-11T06:12:13.727Z,99847.44
2022-10-11T06:13:15.086Z,99843.56
2022-10-11T06:14:16.467Z,99850.22
2022-10-11T06:15:17.994Z,99847.28
2022-10-11T06:16:19.564Z,99849.34
2022-10-11T06:17:20.907Z,99851.47
2022-10-11T06:18:22.284Z,99855.38
2022-10-11T06:19:23.644Z,99854.31
2022-10-11T06:20:25.476Z,99856.66
2022-10-11T06:21:26.811Z,99862.66
2022-10-11T06:22:28.147Z,99860.00
2022-10-11T06:23:29.589Z,99862.66
2022-10-11T06:24:30.943Z,99859.88
2022-10-11T06:25:32.272Z,99856.28
2022-10-11T06:26:33.644Z,99864.75
2022-10-11T06:27:35.024Z,99868.81
2022-10-11T06:28:37.602Z,99859.91
2022-10-11T06:29:38.990Z,99864.09
2022-10-11T06:30:40.333Z,99860.09
2022-10-11T06:31:41.642Z,99870.22
2022-10-11T06:32:43.002Z,99877.22
2022-10-11T06:33:44.491Z,99878.66
2022-10-11T06:34:45.854Z,99876.47
2022-10-11T06:35:47.207Z,99881.91
2022-10-11T06:36:48.560Z,99877.06
2022-10-11T06:37:49.892Z,99875.25
2022-10-11T06:38:52.272Z,99879.97
2022-10-11T06:39:53.622Z,99883.84
2022-10-11T06:40:55.044Z,99886.19
2022-10-11T06:41:56.370Z,99882.84
2022-10-11T06:42:57.721Z,99886.56
2022-10-11T06:43:59.099Z,99891.78
2022-10-11T06:45:00.420Z,99890.47
2022-10-11T06:46:02.048Z,99896.38
2022-10-11T06:47:03.634Z,99896.06
2022-10-11T06:48:05.119Z,99896.28
2022-10-11T06:49:06.523Z,99898.94
2022-10-11T06:50:08.074Z,99904.09
2022-10-11T06:51:10.098Z,99902.41
2022-10-11T06:52:11.439Z,99901.34
2022-10-11T06:53:12.789Z,99903.22
2022-10-11T06:54:14.161Z,99903.28
2022-10-11T06:55:15.566Z,99905.38
2022-10-11T06:56:16.990Z,99901.81
2022-10-11T06:57:18.338Z,99899.66
2022-10-11T06:58:19.716Z,99904.84
2022-10-11T06:59:21.165Z,99901.22
2022-10-11T07:00:22.505Z,99906.94
2022-10-11T07:01:24.204Z,99914.16
2022-10-11T07:02:25.568Z,99906.94
2022-10-11T07:03:26.929Z,99910.88
2022-10-11T07:04:28.325Z,99913.25
2022-10-11T07:05:29.671Z,99906.28
2022-10-11T07:06:31.546Z,99910.88
2022-10-11T07:07:32.964Z,99917.56
2022-10-11T07:08:34.725Z,99905.88
2022-10-11T07:09:36.063Z,99910.19
2022-10-11T07:10:37.416Z,99919.50
2022-10-11T07:11:38.800Z,99920.34
2022-10-11T07:12:42.917Z,99922.72
2022-10-11T07:13:48.689Z,99928.00
2022-10-11T07:14:50.062Z,99928.13
2022-10-11T07:15:51.406Z,99923.25
2022-10-11T07:16:52.747Z,99927.97
2022-10-11T07:17:54.087Z,99926.19
2022-10-11T07:19:00.284Z,99929.06
2022-10-11T07:20:02.202Z,99929.50
2022-10-11T07:21:04.767Z,99932.41
2022-10-11T07:22:06.108Z,99937.69
2022-10-11T07:23:07.419Z,99932.97
2022-10-11T07:24:08.820Z,99938.69
2022-10-11T07:25:10.194Z,99936.47
2022-10-11T07:26:11.633Z,99935.63
2022-10-11T07:27:13.011Z,99938.31
2022-10-11T07:28:14.406Z,99943.19
2022-10-11T07:29:15.960Z,99946.25
2022-10-11T07:30:17.339Z,99947.22
2022-10-11T07:31:21.178Z,99956.25
2022-10-11T07:32:22.533Z,99958.09
2022-10-11T07:33:24.014Z,99959.06
2022-10-11T07:34:25.440Z,99959.06
2022-10-11T07:35:26.816Z,99958.44
2022-10-11T07:36:28.145Z,99960.41
2022-10-11T07:37:29.518Z,99964.47
2022-10-11T07:38:31.604Z,99962.34
2022-10-11T07:39:32.957Z,99966.25
2022-10-11T07:40:40.229Z,99966.53
2022-10-11T07:41:45.649Z,99967.91
2022-10-11T07:42:47.453Z,99968.72
2022-10-11T07:43:48.949Z,99970.44
2022-10-11T07:44:50.318Z,99971.81
2022-10-11T07:45:52.980Z,99973.78
2022-10-11T07:46:54.338Z,99976.72
2022-10-11T07:47:56.111Z,99979.47
2022-10-11T07:48:57.466Z,99979.06
2022-10-11T07:49:58.816Z,99981.59
2022-10-11T07:51:14.436Z,99982.03
2022-10-11T07:52:15.775Z,99976.91
2022-10-11T07:53:17.167Z,99988.03
2022-10-11T07:54:18.500Z,99984.16
2022-10-11T07:55:19.814Z,99981.06
2022-10-11T07:56:23.695Z,99985.25
2022-10-11T07:57:25.032Z,99985.53
2022-10-11T07:58:26.411Z,99979.69
2022-10-11T07:59:27.796Z,99983.44
2022-10-11T08:00:29.127Z,99974.56
2022-10-11T08:01:30.950Z,99987.09
2022-10-11T08:02:32.459Z,99990.84
2022-10-11T08:03:34.023Z,99989.44
2022-10-11T08:04:35.371Z,99992.94
2022-10-11T08:05:37.989Z,99991.69
2022-10-11T08:06:39.476Z,99991.56
2022-10-11T08:07:40.914Z,99997.56
2022-10-11T08:08:42.299Z,99993.09
2022-10-11T08:09:43.618Z,99990.56
2022-10-11T08:10:45.021Z,99986.50
2022-10-11T08:11:46.403Z,99998.34
2022-10-11T08:12:48.232Z,99996.97
2022-10-11T08:13:49.740Z,99996.81
2022-10-11T08:14:51.066Z,99993.34
2022-10-11T08:15:52.960Z,99996.09
2022-10-11T08:16:54.356Z,100002.47
2022-10-11T08:17:55.712Z,99999.81
2022-10-11T08:18:57.323Z,100003.72
2022-10-11T08:19:58.726Z,100001.09
2022-10-11T08:21:00.081Z,100006.91
2022-10-11T08:22:01.441Z,99998.84
2022-10-11T08:23:02.889Z,100001.34
2022-10-11T08:24:05.176Z,100007.19
2022-10-11T08:25:06.643Z,100010.69
2022-10-11T08:26:08.471Z,99999.38
2022-10-11T08:27:10.130Z,100007.47
2022-10-11T08:28:11.850Z,100007.31
2022-10-11T08:29:13.244Z,100003.66
2022-10-11T08:30:14.579Z,100010.75
2022-10-11T08:31:16.309Z,100014.13
2022-10-11T08:32:17.694Z,100011.88
2022-10-11T08:33:19.925Z,100016.38
2022-10-11T08:34:21.279Z,100009.72
2022-10-11T08:35:22.832Z,100019.16
2022-10-11T08:36:24.348Z,100014.97
2022-10-11T08:37:25.730Z,100004.13
2022-10-11T08:38:27.105Z,100010.50
2022-10-11T08:39:28.516Z,100006.69
2022-10-11T08:40:34.943Z,100015.41
2022-10-11T08:41:36.653Z,100013.81
2022-10-11T08:42:51.877Z,100011.88
2022-10-11T08:44:05.514Z,100010.75
2022-10-11T08:45:11.435Z,100014.94
2022-10-11T08:46:15.071Z,100019.41
2022-10-11T08:47:25.712Z,100011.72
2022-10-11T08:48:33.256Z,100032.19
2022-10-11T08:49:34.989Z,100019.66
2022-10-11T08:50:38.145Z,100021.94
2022-10-11T08:51:42.366Z,100033.00
2022-10-11T08:52:50.606Z,100018.84
2022-10-11T08:53:54.166Z,100020.63
2022-10-11T08:55:04.494Z,100027.25
2022-10-11T08:56:06.760Z,100026.56
2022-10-11T08:57:12.315Z,100017.28
2022-10-11T08:58:16.173Z,100025.63
2022-10-11T08:59:38.834Z,100020.69
2022-10-11T09:00:40.856Z,100027.09
2022-10-11T09:02:05.258Z,100029.72
2022-10-11T09:03:25.420Z,100028.47
2022-10-11T09:04:26.811Z,100035.28
2022-10-11T09:05:33.104Z,100031.81
2022-10-11T09:06:53.224Z,100025.97
2022-10-11T09:07:54.523Z,100031.81
2022-10-11T09:09:18.486Z,100030.13
2022-10-11T09:10:31.603Z,100027.72
2022-10-11T09:11:54.425Z,100028.41
2022-10-11T09:13:14.694Z,100038.50
2022-10-11T09:14:22.058Z,100039.38
2022-10-11T09:15:23.444Z,100038.13
2022-10-11T09:16:32.484Z,100036.47
2022-10-11T09:17:43.022Z,100033.91
2022-10-11T09:19:03.183Z,100035.03
2022-10-11T09:20:24.817Z,100040.63
2022-10-11T09:21:41.708Z,100037.47
2022-10-11T09:22:54.777Z,100036.66
2022-10-11T09:23:59.108Z,100036.53
2022-10-11T09:25:10.566Z,100038.22
2022-10-11T09:26:16.990Z,100039.88
2022-10-11T09:27:49.884Z,100035.44
2022-10-11T09:29:01.606Z,100034.47
2022-10-11T09:30:06.689Z,100034.88
2022-10-11T09:31:09.690Z,100037.25
2022-10-11T09:32:15.503Z,100033.06
2022-10-11T09:33:21.456Z,100036.56
2022-10-11T09:34:25.034Z,100035.47
2022-10-11T09:35:28.208Z,100041.47
2022-10-11T09:36:46.770Z,100041.19
2022-10-11T09:37:48.105Z,100037.56
2022-10-11T09:38:54.301Z,100042.44
2022-10-11T09:40:01.142Z,100042.56
2022-10-11T09:41:21.004Z,100037.84
2022-10-11T09:42:22.404Z,100044.66
2022-10-11T09:43:23.782Z,100044.97
2022-10-11T09:44:29.847Z,100035.47
2022-10-11T09:45:31.255Z,100043.28
2022-10-11T09:46:36.549Z,100044.53
2022-10-11T09:47:37.925Z,100040.19
2022-10-11T09:48:41.132Z,100039.94
2022-10-11T09:50:02.097Z,100036.31
2022-10-11T09:51:06.177Z,100045.50
2022-10-11T09:52:14.675Z,100046.34
2022-10-11T09:53:16.026Z,100048.31
2022-10-11T09:54:18.236Z,100045.78
2022-10-11T09:55:30.440Z,100048.00
2022-10-11T09:56:33.407Z,100048.53
2022-10-11T09:57:37.164Z,100047.16
2022-10-11T09:58:38.543Z,100048.56
2022-10-11T09:59:39.909Z,100058.97
2022-10-11T10:00:41.278Z,100054.94
2022-10-11T10:01:42.653Z,100049.81
2022-10-11T10:02:51.456Z,100051.31
2022-10-11T10:04:07.096Z,100056.91
2022-10-11T10:05:08.402Z,100055.94
2022-10-11T10:06:09.747Z,100048.97
2022-10-11T10:07:11.654Z,100055.09
2022-10-11T10:08:15.720Z,100056.63
2022-10-11T10:09:27.737Z,100059.13
2022-10-11T10:10:37.032Z,100056.78
2022-10-11T10:11:38.408Z,100055.38
2022-10-11T10:12:40.367Z,100054.16
2022-10-11T10:13:50.720Z,100053.03
2022-10-11T10:15:13.984Z,100056.66
2022-10-11T10:16:19.803Z,100060.25
2022-10-11T10:17:21.296Z,100055.53
2022-10-11T10:18:42.892Z,100051.91
2022-10-11T10:19:49.188Z,100051.03
2022-10-11T10:20:52.300Z,100050.22
2022-10-11T10:21:54.960Z,100054.38
2022-10-11T10:22:56.427Z,100059.72
2022-10-11T10:23:59.027Z,100062.75
2022-10-11T10:25:02.548Z,100060.69
2022-10-11T10:26:09.860Z,100059.75
2022-10-11T10:27:14.201Z,100058.31
2022-10-11T10:28:17.677Z,100061.47
2022-10-11T10:29:19.043Z,100059.50
2022-10-11T10:30:20.455Z,100059.09
2022-10-11T10:31:23.856Z,100059.47
2022-10-11T10:32:28.226Z,100063.94
2022-10-11T10:33:38.738Z,100061.13
2022-10-11T10:34:51.969Z,100057.66
2022-10-11T10:35:53.273Z,100062.25
2022-10-11T10:37:03.715Z,100058.50
2022-10-11T10:38:08.199Z,100063.06
2022-10-11T10:39:12.558Z,100059.00
2022-10-11T10:40:21.432Z,100058.81
2022-10-11T10:41:22.757Z,100047.91
2022-10-11T10:42:24.268Z,100059.19
2022-10-11T10:43:26.612Z,100063.56
2022-10-11T10:44:28.015Z,100062.94
2022-10-11T10:45:39.429Z,100062.34
2022-10-11T10:46:49.506Z,100067.22
2022-10-11T10:48:11.636Z,100057.97
2022-10-11T10:50:54.681Z,100062.31
2022-10-11T10:52:02.557Z,100063.19
2022-10-11T10:53:22.441Z,100064.53
2022-10-11T10:54:36.025Z,100059.81
2022-10-11T10:55:42.103Z,100063.53
2022-10-11T10:56:55.593Z,100061.09
2022-10-11T10:58:15.149Z,100063.50
2022-10-11T10:59:19.216Z,100062.69
2022-10-11T11:00:21.950Z,100064.88
2022-10-11T11:01:26.310Z,100062.75
2022-10-11T11:02:41.686Z,100066.63
2022-10-11T11:03:47.798Z,100066.97
2022-10-11T11:05:15.390Z,100071.38
2022-10-11T11:06:23.595Z,100062.88
2022-10-11T11:07:24.918Z,100065.53
2022-10-11T11:08:32.280Z,100067.72
2022-10-11T11:09:44.017Z,100061.34
2022-10-11T11:10:49.750Z,100064.31
2022-10-11T11:12:02.907Z,100063.88
2022-10-11T11:13:18.187Z,100064.53
2022-10-11T11:14:26.531Z,100066.22
2022-10-11T11:15:40.801Z,100061.34
2022-10-11T11:16:48.449Z,100059.22
2022-10-11T11:18:02.221Z,100058.44
2022-10-11T11:19:12.518Z,100065.84
2022-10-11T11:20:27.947Z,100056.69
2022-10-11T11:21:41.475Z,100065.34
2022-10-11T11:22:59.306Z,100061.25
2022-10-11T11:24:18.758Z,100060.75
2022-10-11T11:25:26.305Z,100057.69
2022-10-11T11:26:35.242Z,100066.06
2022-10-11T11:27:55.318Z,100063.75
2022-10-11T11:29:08.674Z,100062.66
2022-10-11T11:30:13.523Z,100067.03
2022-10-11T11:31:20.974Z,100067.09
2022-10-11T11:32:57.983Z,100053.66
2022-10-11T11:34:19.773Z,100064.09
2022-10-11T11:35:30.240Z,100060.09
2022-10-11T11:36:44.656Z,100062.22
2022-10-11T11:37:47.555Z,100065.34
2022-10-11T11:38:52.414Z,100065.53
2022-10-11T11:40:07.640Z,100069.31
2022-10-11T11:41:29.227Z,100065.75
2022-10-11T11:42:41.876Z,100055.38
2022-10-11T11:43:58.586Z,100063.84
2022-10-11T11:45:03.294Z,100062.38
2022-10-11T11:46:17.189Z,100047.53
2022-10-11T11:47:23.030Z,100055.19
2022-10-11T11:48:26.253Z,100059.31
2022-10-11T11:49:35.896Z,100068.59
2022-10-11T11:50:38.542Z,100065.81
2022-10-11T11:51:42.758Z,100066.22
2022-10-11T11:52:46.541Z,100065.44
2022-10-11T11:54:07.812Z,100059.44
2022-10-11T11:55:17.960Z,100061.56
2022-10-11T11:56:26.901Z,100062.38
2022-10-11T11:57:37.265Z,100055.25
2022-10-11T11:58:42.994Z,100057.13
2022-10-11T11:59:51.309Z,100058.31
2022-10-11T12:01:11.477Z,100054.94
2022-10-11T12:02:12.859Z,100058.84
2022-10-11T12:03:18.893Z,100054.88
2022-10-11T12:04:23.260Z,100062.31
2022-10-11T12:05:27.306Z,100061.56
2022-10-11T12:06:31.197Z,100066.88
2022-10-11T12:07:46.188Z,100067.88
2022-10-11T12:08:55.009Z,100064.66
2022-10-11T12:10:16.934Z,100062.41
2022-10-11T12:11:20.095Z,100059.75
2022-10-11T12:12:29.596Z,100059.31
2022-10-11T12:13:35.201Z,100054.31
2022-10-11T12:14:38.525Z,100064.09
2022-10-11T12:15:39.900Z,100066.56
2022-10-11T12:17:01.163Z,100055.25
2022-10-11T12:18:04.613Z,100060.22
2022-10-11T12:19:05.966Z,100058.09
2022-10-11T12:20:26.781Z,100058.75
2022-10-11T12:21:32.788Z,100054.47
2022-10-11T12:22:34.099Z,100053.00
2022-10-11T12:23:44.137Z,100056.72
2022-10-11T12:24:57.630Z,100054.72
2022-10-11T12:26:17.769Z,100054.22
2022-10-11T12:27:37.594Z,100052.00
2022-10-11T12:28:42.075Z,100060.94
2022-10-11T12:29:43.471Z,100061.34
2022-10-11T12:30:44.792Z,100060.81
2022-10-11T12:31:47.501Z,100061.81
2022-10-11T12:32:50.937Z,100060.13